sensor_id;sensor_type;location;lat;lon;timestamp;P1;durP1;ratioP1;P2;durP2;ratioP2
43325;SDS011;28920;59.862;30.636;2023-03-14T00:01:34;4.57;;;3.30;;
43325;SDS011;28920;59.862;30.636;2023-03-14T00:04:03;5.43;;;3.10;;
43325;SDS011;28920;59.862;30.636;2023-03-14T00:06:31;6.10;;;3.62;;
43325;SDS011;28920;59.862;30.636;2023-03-14T00:08:58;9.70;;;3.75;;
43325;SDS011;28920;59.862;30.636;2023-03-14T00:11:26;4.35;;;2.45;;
43325;SDS011;28920;59.862;30.636;2023-03-14T00:13:53;8.68;;;4.22;;
43325;SDS011;28920;59.862;30.636;2023-03-14T00:16:20;4.03;;;3.35;;
43325;SDS011;28920;59.862;30.636;2023-03-14T00:18:48;5.05;;;3.40;;
43325;SDS011;28920;59.862;30.636;2023-03-14T00:21:15;4.72;;;2.78;;
43325;SDS011;28920;59.862;30.636;2023-03-14T00:23:43;4.10;;;2.85;;
43325;SDS011;28920;59.862;30.636;2023-03-14T00:26:11;7.00;;;3.62;;
43325;SDS011;28920;59.862;30.636;2023-03-14T00:28:40;7.90;;;3.80;;
43325;SDS011;28920;59.862;30.636;2023-03-14T00:31:10;4.12;;;2.72;;
43325;SDS011;28920;59.862;30.636;2023-03-14T00:33:39;6.03;;;2.87;;
43325;SDS011;28920;59.862;30.636;2023-03-14T00:36:07;3.25;;;2.60;;
43325;SDS011;28920;59.862;30.636;2023-03-14T00:38:37;4.85;;;2.75;;
43325;SDS011;28920;59.862;30.636;2023-03-14T00:41:07;3.75;;;2.83;;
43325;SDS011;28920;59.862;30.636;2023-03-14T00:43:36;5.95;;;3.20;;
43325;SDS011;28920;59.862;30.636;2023-03-14T00:46:03;10.45;;;3.45;;
43325;SDS011;28920;59.862;30.636;2023-03-14T00:48:31;4.65;;;3.30;;
43325;SDS011;28920;59.862;30.636;2023-03-14T00:51:00;4.30;;;3.17;;
43325;SDS011;28920;59.862;30.636;2023-03-14T00:53:27;4.60;;;3.35;;
43325;SDS011;28920;59.862;30.636;2023-03-14T00:55:55;6.07;;;2.08;;
43325;SDS011;28920;59.862;30.636;2023-03-14T00:58:23;4.20;;;2.95;;
43325;SDS011;28920;59.862;30.636;2023-03-14T01:00:50;7.47;;;3.40;;
43325;SDS011;28920;59.862;30.636;2023-03-14T01:03:17;4.45;;;2.67;;
43325;SDS011;28920;59.862;30.636;2023-03-14T01:05:44;4.60;;;2.90;;
43325;SDS011;28920;59.862;30.636;2023-03-14T01:08:11;4.10;;;3.60;;
43325;SDS011;28920;59.862;30.636;2023-03-14T01:10:39;6.43;;;3.50;;
43325;SDS011;28920;59.862;30.636;2023-03-14T01:13:07;5.22;;;3.03;;
43325;SDS011;28920;59.862;30.636;2023-03-14T01:15:36;3.75;;;3.10;;
43325;SDS011;28920;59.862;30.636;2023-03-14T01:18:04;7.62;;;3.12;;
43325;SDS011;28920;59.862;30.636;2023-03-14T01:20:31;5.47;;;3.08;;
43325;SDS011;28920;59.862;30.636;2023-03-14T01:22:58;3.33;;;2.60;;
43325;SDS011;28920;59.862;30.636;2023-03-14T01:25:25;4.78;;;3.33;;
43325;SDS011;28920;59.862;30.636;2023-03-14T01:27:53;3.50;;;2.90;;
43325;SDS011;28920;59.862;30.636;2023-03-14T01:30:20;2.92;;;2.58;;
43325;SDS011;28920;59.862;30.636;2023-03-14T01:32:48;4.07;;;3.12;;
43325;SDS011;28920;59.862;30.636;2023-03-14T01:35:16;4.85;;;3.15;;
43325;SDS011;28920;59.862;30.636;2023-03-14T01:37:43;3.62;;;2.95;;
43325;SDS011;28920;59.862;30.636;2023-03-14T01:40:11;4.15;;;2.85;;
43325;SDS011;28920;59.862;30.636;2023-03-14T01:42:45;4.43;;;3.03;;
43325;SDS011;28920;59.862;30.636;2023-03-14T01:48:18;4.65;;;2.58;;
43325;SDS011;28920;59.862;30.636;2023-03-14T01:50:46;3.72;;;2.60;;
43325;SDS011;28920;59.862;30.636;2023-03-14T01:53:14;3.42;;;2.45;;
43325;SDS011;28920;59.862;30.636;2023-03-14T01:55:42;4.12;;;2.28;;
43325;SDS011;28920;59.862;30.636;2023-03-14T01:58:09;3.35;;;2.17;;
43325;SDS011;28920;59.862;30.636;2023-03-14T02:00:36;4.10;;;2.08;;
43325;SDS011;28920;59.862;30.636;2023-03-14T02:03:05;6.15;;;2.40;;
43325;SDS011;28920;59.862;30.636;2023-03-14T02:05:38;3.62;;;2.37;;
43325;SDS011;28920;59.862;30.636;2023-03-14T02:08:10;3.67;;;2.87;;
43325;SDS011;28920;59.862;30.636;2023-03-14T02:10:40;5.53;;;2.60;;
43325;SDS011;28920;59.862;30.636;2023-03-14T02:13:11;3.67;;;1.95;;
43325;SDS011;28920;59.862;30.636;2023-03-14T02:15:40;2.95;;;2.25;;
43325;SDS011;28920;59.862;30.636;2023-03-14T02:18:09;3.72;;;2.42;;
43325;SDS011;28920;59.862;30.636;2023-03-14T02:20:39;3.28;;;2.33;;
43325;SDS011;28920;59.862;30.636;2023-03-14T02:23:13;4.53;;;3.08;;
43325;SDS011;28920;59.862;30.636;2023-03-14T02:25:48;4.25;;;2.53;;
43325;SDS011;28920;59.862;30.636;2023-03-14T02:28:22;4.00;;;2.45;;
43325;SDS011;28920;59.862;30.636;2023-03-14T02:30:50;3.08;;;2.05;;
43325;SDS011;28920;59.862;30.636;2023-03-14T02:33:18;3.72;;;2.72;;
43325;SDS011;28920;59.862;30.636;2023-03-14T02:35:47;5.15;;;2.80;;
43325;SDS011;28920;59.862;30.636;2023-03-14T02:38:20;4.80;;;2.42;;
43325;SDS011;28920;59.862;30.636;2023-03-14T02:40:52;2.78;;;1.95;;
43325;SDS011;28920;59.862;30.636;2023-03-14T02:43:20;3.40;;;2.33;;
43325;SDS011;28920;59.862;30.636;2023-03-14T02:45:49;4.72;;;2.45;;
43325;SDS011;28920;59.862;30.636;2023-03-14T02:48:20;5.60;;;1.62;;
43325;SDS011;28920;59.862;30.636;2023-03-14T02:50:51;2.53;;;1.87;;
43325;SDS011;28920;59.862;30.636;2023-03-14T02:53:23;3.22;;;2.12;;
43325;SDS011;28920;59.862;30.636;2023-03-14T02:55:55;3.00;;;1.77;;
43325;SDS011;28920;59.862;30.636;2023-03-14T02:58:23;2.80;;;1.73;;
43325;SDS011;28920;59.862;30.636;2023-03-14T03:00:52;3.20;;;1.60;;
43325;SDS011;28920;59.862;30.636;2023-03-14T03:03:19;3.03;;;1.52;;
43325;SDS011;28920;59.862;30.636;2023-03-14T03:05:48;1.67;;;1.30;;
43325;SDS011;28920;59.862;30.636;2023-03-14T03:08:17;2.00;;;1.40;;
43325;SDS011;28920;59.862;30.636;2023-03-14T03:10:45;1.37;;;1.08;;
43325;SDS011;28920;59.862;30.636;2023-03-14T03:13:13;2.37;;;1.67;;
43325;SDS011;28920;59.862;30.636;2023-03-14T03:15:40;2.33;;;2.05;;
43325;SDS011;28920;59.862;30.636;2023-03-14T03:18:08;2.28;;;1.70;;
43325;SDS011;28920;59.862;30.636;2023-03-14T03:20:36;2.53;;;1.92;;
43325;SDS011;28920;59.862;30.636;2023-03-14T03:23:03;3.90;;;1.77;;
43325;SDS011;28920;59.862;30.636;2023-03-14T03:25:31;2.62;;;2.20;;
43325;SDS011;28920;59.862;30.636;2023-03-14T03:28:03;2.08;;;1.67;;
43325;SDS011;28920;59.862;30.636;2023-03-14T03:30:36;3.22;;;2.10;;
43325;SDS011;28920;59.862;30.636;2023-03-14T03:33:04;1.67;;;1.20;;
43325;SDS011;28920;59.862;30.636;2023-03-14T03:35:32;2.47;;;1.65;;
43325;SDS011;28920;59.862;30.636;2023-03-14T03:38:00;3.20;;;2.30;;
43325;SDS011;28920;59.862;30.636;2023-03-14T03:40:28;2.22;;;1.75;;
43325;SDS011;28920;59.862;30.636;2023-03-14T03:42:55;3.22;;;1.83;;
43325;SDS011;28920;59.862;30.636;2023-03-14T03:45:22;2.58;;;1.90;;
43325;SDS011;28920;59.862;30.636;2023-03-14T03:47:50;2.53;;;2.00;;
43325;SDS011;28920;59.862;30.636;2023-03-14T03:50:17;2.30;;;1.60;;
43325;SDS011;28920;59.862;30.636;2023-03-14T03:52:45;3.55;;;2.33;;
43325;SDS011;28920;59.862;30.636;2023-03-14T03:55:12;3.08;;;1.98;;
43325;SDS011;28920;59.862;30.636;2023-03-14T03:57:40;2.85;;;1.85;;
43325;SDS011;28920;59.862;30.636;2023-03-14T04:00:07;2.72;;;2.15;;
43325;SDS011;28920;59.862;30.636;2023-03-14T04:02:40;1.58;;;1.48;;
43325;SDS011;28920;59.862;30.636;2023-03-14T04:05:08;1.48;;;1.15;;
43325;SDS011;28920;59.862;30.636;2023-03-14T04:07:37;2.83;;;2.00;;
43325;SDS011;28920;59.862;30.636;2023-03-14T04:10:06;5.20;;;2.05;;
43325;SDS011;28920;59.862;30.636;2023-03-14T04:12:35;2.08;;;1.80;;
43325;SDS011;28920;59.862;30.636;2023-03-14T04:15:04;4.07;;;2.10;;
43325;SDS011;28920;59.862;30.636;2023-03-14T04:17:31;2.30;;;1.50;;
43325;SDS011;28920;59.862;30.636;2023-03-14T04:19:59;2.47;;;1.83;;
43325;SDS011;28920;59.862;30.636;2023-03-14T04:22:29;2.53;;;2.00;;
43325;SDS011;28920;59.862;30.636;2023-03-14T04:24:56;2.15;;;1.85;;
43325;SDS011;28920;59.862;30.636;2023-03-14T04:27:24;2.33;;;1.70;;
43325;SDS011;28920;59.862;30.636;2023-03-14T04:29:52;2.72;;;1.80;;
43325;SDS011;28920;59.862;30.636;2023-03-14T04:32:20;1.90;;;1.25;;
43325;SDS011;28920;59.862;30.636;2023-03-14T04:34:48;2.28;;;1.60;;
43325;SDS011;28920;59.862;30.636;2023-03-14T04:37:15;2.00;;;1.60;;
43325;SDS011;28920;59.862;30.636;2023-03-14T04:39:43;2.12;;;1.90;;
43325;SDS011;28920;59.862;30.636;2023-03-14T04:42:11;2.12;;;1.77;;
43325;SDS011;28920;59.862;30.636;2023-03-14T04:44:39;2.70;;;1.95;;
43325;SDS011;28920;59.862;30.636;2023-03-14T04:47:06;2.00;;;1.80;;
43325;SDS011;28920;59.862;30.636;2023-03-14T04:49:34;2.37;;;1.60;;
43325;SDS011;28920;59.862;30.636;2023-03-14T04:52:02;2.37;;;1.60;;
43325;SDS011;28920;59.862;30.636;2023-03-14T04:54:31;2.35;;;1.80;;
43325;SDS011;28920;59.862;30.636;2023-03-14T04:56:58;2.80;;;1.92;;
43325;SDS011;28920;59.862;30.636;2023-03-14T04:59:27;3.22;;;2.08;;
43325;SDS011;28920;59.862;30.636;2023-03-14T05:01:56;3.30;;;2.35;;
43325;SDS011;28920;59.862;30.636;2023-03-14T05:04:24;3.62;;;2.50;;
43325;SDS011;28920;59.862;30.636;2023-03-14T05:06:53;3.45;;;2.10;;
43325;SDS011;28920;59.862;30.636;2023-03-14T05:09:20;4.97;;;2.50;;
43325;SDS011;28920;59.862;30.636;2023-03-14T05:11:48;3.87;;;2.12;;
43325;SDS011;28920;59.862;30.636;2023-03-14T05:14:15;3.47;;;2.30;;
43325;SDS011;28920;59.862;30.636;2023-03-14T05:16:42;2.85;;;2.08;;
43325;SDS011;28920;59.862;30.636;2023-03-14T05:19:11;2.70;;;2.25;;
43325;SDS011;28920;59.862;30.636;2023-03-14T05:21:38;3.45;;;2.53;;
43325;SDS011;28920;59.862;30.636;2023-03-14T05:24:05;3.10;;;2.20;;
43325;SDS011;28920;59.862;30.636;2023-03-14T05:26:33;1.87;;;1.65;;
43325;SDS011;28920;59.862;30.636;2023-03-14T05:29:01;2.95;;;1.80;;
43325;SDS011;28920;59.862;30.636;2023-03-14T05:31:28;3.78;;;2.10;;
43325;SDS011;28920;59.862;30.636;2023-03-14T05:33:56;4.97;;;2.75;;
43325;SDS011;28920;59.862;30.636;2023-03-14T05:36:24;3.45;;;2.47;;
43325;SDS011;28920;59.862;30.636;2023-03-14T05:38:52;4.40;;;3.20;;
43325;SDS011;28920;59.862;30.636;2023-03-14T05:41:21;4.10;;;2.87;;
43325;SDS011;28920;59.862;30.636;2023-03-14T05:43:48;4.07;;;3.37;;
43325;SDS011;28920;59.862;30.636;2023-03-14T05:46:16;5.62;;;3.78;;
43325;SDS011;28920;59.862;30.636;2023-03-14T05:48:43;5.62;;;3.80;;
43325;SDS011;28920;59.862;30.636;2023-03-14T05:51:11;8.23;;;4.18;;
43325;SDS011;28920;59.862;30.636;2023-03-14T05:53:41;5.72;;;4.20;;
43325;SDS011;28920;59.862;30.636;2023-03-14T05:56:10;6.68;;;4.20;;
43325;SDS011;28920;59.862;30.636;2023-03-14T05:58:37;7.53;;;5.05;;
43325;SDS011;28920;59.862;30.636;2023-03-14T06:01:05;8.38;;;6.22;;
43325;SDS011;28920;59.862;30.636;2023-03-14T06:03:34;7.15;;;5.55;;
43325;SDS011;28920;59.862;30.636;2023-03-14T06:06:01;8.18;;;5.65;;
43325;SDS011;28920;59.862;30.636;2023-03-14T06:08:28;6.75;;;5.07;;
43325;SDS011;28920;59.862;30.636;2023-03-14T06:10:57;7.75;;;5.22;;
43325;SDS011;28920;59.862;30.636;2023-03-14T06:13:27;6.00;;;4.97;;
43325;SDS011;28920;59.862;30.636;2023-03-14T06:15:55;5.37;;;4.12;;
43325;SDS011;28920;59.862;30.636;2023-03-14T06:18:23;4.68;;;3.53;;
43325;SDS011;28920;59.862;30.636;2023-03-14T06:20:53;8.05;;;4.75;;
43325;SDS011;28920;59.862;30.636;2023-03-14T06:23:20;9.48;;;4.70;;
43325;SDS011;28920;59.862;30.636;2023-03-14T06:25:49;12.48;;;5.72;;
43325;SDS011;28920;59.862;30.636;2023-03-14T06:28:17;8.35;;;4.57;;
43325;SDS011;28920;59.862;30.636;2023-03-14T06:30:45;11.07;;;6.20;;
43325;SDS011;28920;59.862;30.636;2023-03-14T06:33:15;13.02;;;4.75;;
43325;SDS011;28920;59.862;30.636;2023-03-14T06:35:42;6.87;;;3.70;;
43325;SDS011;28920;59.862;30.636;2023-03-14T06:38:10;5.70;;;3.30;;
43325;SDS011;28920;59.862;30.636;2023-03-14T06:40:37;7.12;;;3.60;;
43325;SDS011;28920;59.862;30.636;2023-03-14T06:43:05;4.45;;;3.62;;
43325;SDS011;28920;59.862;30.636;2023-03-14T06:45:33;6.75;;;3.95;;
43325;SDS011;28920;59.862;30.636;2023-03-14T06:48:01;4.97;;;2.97;;
43325;SDS011;28920;59.862;30.636;2023-03-14T06:50:30;4.68;;;3.20;;
43325;SDS011;28920;59.862;30.636;2023-03-14T06:52:57;4.82;;;3.03;;
43325;SDS011;28920;59.862;30.636;2023-03-14T06:55:25;5.43;;;2.20;;
43325;SDS011;28920;59.862;30.636;2023-03-14T06:57:52;4.78;;;2.60;;
43325;SDS011;28920;59.862;30.636;2023-03-14T07:00:20;10.98;;;3.92;;
43325;SDS011;28920;59.862;30.636;2023-03-14T07:02:51;4.10;;;2.90;;
43325;SDS011;28920;59.862;30.636;2023-03-14T07:05:18;3.37;;;2.58;;
43325;SDS011;28920;59.862;30.636;2023-03-14T07:07:46;6.78;;;3.33;;
43325;SDS011;28920;59.862;30.636;2023-03-14T07:10:13;4.12;;;2.67;;
43325;SDS011;28920;59.862;30.636;2023-03-14T07:12:40;6.18;;;3.72;;
43325;SDS011;28920;59.862;30.636;2023-03-14T07:15:07;2.95;;;2.50;;
43325;SDS011;28920;59.862;30.636;2023-03-14T07:17:35;3.92;;;2.30;;
43325;SDS011;28920;59.862;30.636;2023-03-14T07:20:04;4.32;;;3.17;;
43325;SDS011;28920;59.862;30.636;2023-03-14T07:22:33;6.05;;;2.58;;
43325;SDS011;28920;59.862;30.636;2023-03-14T07:25:01;5.20;;;2.75;;
43325;SDS011;28920;59.862;30.636;2023-03-14T07:27:29;4.55;;;3.10;;
43325;SDS011;28920;59.862;30.636;2023-03-14T07:29:56;4.50;;;3.17;;
43325;SDS011;28920;59.862;30.636;2023-03-14T07:32:24;3.47;;;2.72;;
43325;SDS011;28920;59.862;30.636;2023-03-14T07:34:51;6.80;;;3.17;;
43325;SDS011;28920;59.862;30.636;2023-03-14T07:37:19;4.25;;;2.90;;
43325;SDS011;28920;59.862;30.636;2023-03-14T07:39:46;3.12;;;2.45;;
43325;SDS011;28920;59.862;30.636;2023-03-14T07:42:14;5.05;;;3.55;;
43325;SDS011;28920;59.862;30.636;2023-03-14T07:44:41;4.47;;;3.25;;
43325;SDS011;28920;59.862;30.636;2023-03-14T07:47:09;5.82;;;3.50;;
43325;SDS011;28920;59.862;30.636;2023-03-14T07:49:36;4.97;;;3.65;;
43325;SDS011;28920;59.862;30.636;2023-03-14T07:52:03;8.45;;;3.62;;
43325;SDS011;28920;59.862;30.636;2023-03-14T07:54:31;7.28;;;3.90;;
43325;SDS011;28920;59.862;30.636;2023-03-14T07:56:58;8.80;;;5.35;;
43325;SDS011;28920;59.862;30.636;2023-03-14T07:59:26;6.43;;;4.25;;
43325;SDS011;28920;59.862;30.636;2023-03-14T08:01:54;8.25;;;4.03;;
43325;SDS011;28920;59.862;30.636;2023-03-14T08:04:22;6.35;;;3.60;;
43325;SDS011;28920;59.862;30.636;2023-03-14T08:06:49;7.10;;;3.67;;
43325;SDS011;28920;59.862;30.636;2023-03-14T08:09:16;7.45;;;4.15;;
43325;SDS011;28920;59.862;30.636;2023-03-14T08:11:44;7.85;;;4.35;;
43325;SDS011;28920;59.862;30.636;2023-03-14T08:14:11;10.43;;;4.50;;
43325;SDS011;28920;59.862;30.636;2023-03-14T08:16:38;8.38;;;4.60;;
43325;SDS011;28920;59.862;30.636;2023-03-14T08:19:06;6.20;;;4.35;;
43325;SDS011;28920;59.862;30.636;2023-03-14T08:21:32;7.28;;;4.43;;
43325;SDS011;28920;59.862;30.636;2023-03-14T08:24:00;10.65;;;4.65;;
43325;SDS011;28920;59.862;30.636;2023-03-14T08:26:27;7.80;;;4.72;;
43325;SDS011;28920;59.862;30.636;2023-03-14T08:28:55;6.70;;;4.62;;
43325;SDS011;28920;59.862;30.636;2023-03-14T08:31:22;5.75;;;4.12;;
43325;SDS011;28920;59.862;30.636;2023-03-14T08:33:50;9.20;;;5.20;;
43325;SDS011;28920;59.862;30.636;2023-03-14T08:36:18;5.97;;;3.70;;
43325;SDS011;28920;59.862;30.636;2023-03-14T08:38:46;7.93;;;4.28;;
43325;SDS011;28920;59.862;30.636;2023-03-14T08:41:13;7.72;;;4.68;;
43325;SDS011;28920;59.862;30.636;2023-03-14T08:43:40;10.55;;;4.80;;
43325;SDS011;28920;59.862;30.636;2023-03-14T08:46:08;9.93;;;4.70;;
43325;SDS011;28920;59.862;30.636;2023-03-14T08:48:35;8.45;;;5.10;;
43325;SDS011;28920;59.862;30.636;2023-03-14T08:51:05;8.32;;;4.47;;
43325;SDS011;28920;59.862;30.636;2023-03-14T08:53:34;9.18;;;4.60;;
43325;SDS011;28920;59.862;30.636;2023-03-14T08:56:02;9.45;;;5.87;;
43325;SDS011;28920;59.862;30.636;2023-03-14T08:58:32;10.55;;;6.12;;
43325;SDS011;28920;59.862;30.636;2023-03-14T09:00:59;12.32;;;6.60;;
43325;SDS011;28920;59.862;30.636;2023-03-14T09:03:27;17.60;;;8.15;;
43325;SDS011;28920;59.862;30.636;2023-03-14T09:05:55;16.95;;;8.50;;
43325;SDS011;28920;59.862;30.636;2023-03-14T09:08:22;10.93;;;5.90;;
43325;SDS011;28920;59.862;30.636;2023-03-14T09:10:49;16.05;;;6.82;;
43325;SDS011;28920;59.862;30.636;2023-03-14T09:13:16;18.83;;;7.50;;
43325;SDS011;28920;59.862;30.636;2023-03-14T09:15:43;13.00;;;6.60;;
43325;SDS011;28920;59.862;30.636;2023-03-14T09:18:11;14.57;;;7.10;;
43325;SDS011;28920;59.862;30.636;2023-03-14T09:20:39;9.98;;;5.22;;
43325;SDS011;28920;59.862;30.636;2023-03-14T09:23:07;14.18;;;7.18;;
43325;SDS011;28920;59.862;30.636;2023-03-14T09:25:35;9.90;;;5.37;;
43325;SDS011;28920;59.862;30.636;2023-03-14T09:28:02;19.10;;;6.85;;
43325;SDS011;28920;59.862;30.636;2023-03-14T09:30:29;13.23;;;6.72;;
43325;SDS011;28920;59.862;30.636;2023-03-14T09:32:56;12.00;;;7.43;;
43325;SDS011;28920;59.862;30.636;2023-03-14T09:35:25;14.65;;;6.57;;
43325;SDS011;28920;59.862;30.636;2023-03-14T09:37:52;15.77;;;7.07;;
43325;SDS011;28920;59.862;30.636;2023-03-14T09:40:20;15.80;;;7.85;;
43325;SDS011;28920;59.862;30.636;2023-03-14T09:42:50;17.62;;;7.32;;
43325;SDS011;28920;59.862;30.636;2023-03-14T09:45:21;19.62;;;8.00;;
43325;SDS011;28920;59.862;30.636;2023-03-14T09:47:52;18.40;;;9.02;;
43325;SDS011;28920;59.862;30.636;2023-03-14T09:50:21;22.33;;;9.15;;
43325;SDS011;28920;59.862;30.636;2023-03-14T09:52:51;19.25;;;8.52;;
43325;SDS011;28920;59.862;30.636;2023-03-14T09:55:23;23.65;;;9.23;;
43325;SDS011;28920;59.862;30.636;2023-03-14T09:57:54;23.27;;;10.95;;
43325;SDS011;28920;59.862;30.636;2023-03-14T10:00:25;19.70;;;8.95;;
43325;SDS011;28920;59.862;30.636;2023-03-14T10:02:54;19.80;;;9.07;;
43325;SDS011;28920;59.862;30.636;2023-03-14T10:05:24;19.52;;;8.02;;
43325;SDS011;28920;59.862;30.636;2023-03-14T10:07:54;19.08;;;7.70;;
43325;SDS011;28920;59.862;30.636;2023-03-14T10:10:22;16.67;;;6.95;;
43325;SDS011;28920;59.862;30.636;2023-03-14T10:12:55;16.23;;;7.82;;
43325;SDS011;28920;59.862;30.636;2023-03-14T10:15:24;13.88;;;8.32;;
43325;SDS011;28920;59.862;30.636;2023-03-14T10:17:52;14.48;;;6.87;;
43325;SDS011;28920;59.862;30.636;2023-03-14T10:20:27;11.02;;;6.60;;
43325;SDS011;28920;59.862;30.636;2023-03-14T10:23:00;9.35;;;6.18;;
43325;SDS011;28920;59.862;30.636;2023-03-14T10:25:29;10.40;;;6.20;;
43325;SDS011;28920;59.862;30.636;2023-03-14T10:27:57;11.38;;;5.18;;
43325;SDS011;28920;59.862;30.636;2023-03-14T10:30:38;11.85;;;5.12;;
43325;SDS011;28920;59.862;30.636;2023-03-14T10:33:11;11.15;;;4.85;;
43325;SDS011;28920;59.862;30.636;2023-03-14T10:35:46;11.48;;;5.25;;
43325;SDS011;28920;59.862;30.636;2023-03-14T10:38:19;8.02;;;4.72;;
43325;SDS011;28920;59.862;30.636;2023-03-14T10:40:51;6.90;;;4.95;;
43325;SDS011;28920;59.862;30.636;2023-03-14T10:43:22;12.27;;;5.50;;
43325;SDS011;28920;59.862;30.636;2023-03-14T10:45:54;11.50;;;5.30;;
43325;SDS011;28920;59.862;30.636;2023-03-14T10:48:24;13.65;;;5.60;;
43325;SDS011;28920;59.862;30.636;2023-03-14T10:51:02;8.63;;;5.10;;
43325;SDS011;28920;59.862;30.636;2023-03-14T10:53:38;9.45;;;5.37;;
43325;SDS011;28920;59.862;30.636;2023-03-14T10:56:11;11.25;;;5.15;;
43325;SDS011;28920;59.862;30.636;2023-03-14T10:58:40;9.73;;;5.37;;
43325;SDS011;28920;59.862;30.636;2023-03-14T11:01:15;8.45;;;4.85;;
43325;SDS011;28920;59.862;30.636;2023-03-14T11:04:00;12.68;;;5.60;;
43325;SDS011;28920;59.862;30.636;2023-03-14T11:06:33;11.95;;;5.12;;
43325;SDS011;28920;59.862;30.636;2023-03-14T11:09:06;9.48;;;6.00;;
43325;SDS011;28920;59.862;30.636;2023-03-14T11:11:42;9.80;;;5.05;;
43325;SDS011;28920;59.862;30.636;2023-03-14T11:14:18;8.88;;;5.18;;
43325;SDS011;28920;59.862;30.636;2023-03-14T11:16:57;7.10;;;5.15;;
43325;SDS011;28920;59.862;30.636;2023-03-14T11:19:37;11.57;;;5.82;;
43325;SDS011;28920;59.862;30.636;2023-03-14T11:22:16;12.43;;;6.68;;
43325;SDS011;28920;59.862;30.636;2023-03-14T11:24:57;12.02;;;7.45;;
43325;SDS011;28920;59.862;30.636;2023-03-14T11:27:36;12.37;;;7.85;;
43325;SDS011;28920;59.862;30.636;2023-03-14T11:30:15;11.70;;;7.87;;
43325;SDS011;28920;59.862;30.636;2023-03-14T11:32:47;15.27;;;7.12;;
43325;SDS011;28920;59.862;30.636;2023-03-14T11:35:23;13.25;;;6.37;;
43325;SDS011;28920;59.862;30.636;2023-03-14T11:37:54;8.60;;;7.13;;
43325;SDS011;28920;59.862;30.636;2023-03-14T11:40:27;12.70;;;6.10;;
43325;SDS011;28920;59.862;30.636;2023-03-14T11:42:58;12.45;;;6.65;;
43325;SDS011;28920;59.862;30.636;2023-03-14T11:45:32;12.57;;;6.60;;
43325;SDS011;28920;59.862;30.636;2023-03-14T11:48:09;10.98;;;6.25;;
43325;SDS011;28920;59.862;30.636;2023-03-14T11:50:47;12.00;;;6.15;;
43325;SDS011;28920;59.862;30.636;2023-03-14T11:53:19;13.02;;;6.35;;
43325;SDS011;28920;59.862;30.636;2023-03-14T11:55:50;11.05;;;5.95;;
43325;SDS011;28920;59.862;30.636;2023-03-14T11:58:22;12.52;;;6.62;;
43325;SDS011;28920;59.862;30.636;2023-03-14T12:00:52;11.70;;;6.20;;
43325;SDS011;28920;59.862;30.636;2023-03-14T12:03:23;11.65;;;6.70;;
43325;SDS011;28920;59.862;30.636;2023-03-14T12:05:59;13.73;;;6.50;;
43325;SDS011;28920;59.862;30.636;2023-03-14T12:08:39;13.68;;;6.80;;
43325;SDS011;28920;59.862;30.636;2023-03-14T12:11:18;8.77;;;6.05;;
43325;SDS011;28920;59.862;30.636;2023-03-14T12:13:49;13.15;;;6.12;;
43325;SDS011;28920;59.862;30.636;2023-03-14T12:16:37;16.75;;;7.30;;
43325;SDS011;28920;59.862;30.636;2023-03-14T12:19:24;12.98;;;6.78;;
43325;SDS011;28920;59.862;30.636;2023-03-14T12:21:55;14.90;;;7.43;;
43325;SDS011;28920;59.862;30.636;2023-03-14T12:24:29;12.60;;;8.43;;
43325;SDS011;28920;59.862;30.636;2023-03-14T12:26:58;18.52;;;7.93;;
43325;SDS011;28920;59.862;30.636;2023-03-14T12:29:27;9.65;;;7.05;;
43325;SDS011;28920;59.862;30.636;2023-03-14T12:34:51;16.92;;;7.18;;
43325;SDS011;28920;59.862;30.636;2023-03-14T12:40:12;12.13;;;8.30;;
43325;SDS011;28920;59.862;30.636;2023-03-14T12:42:56;15.75;;;8.00;;
43325;SDS011;28920;59.862;30.636;2023-03-14T12:45:29;15.15;;;8.52;;
43325;SDS011;28920;59.862;30.636;2023-03-14T12:48:10;14.43;;;7.65;;
43325;SDS011;28920;59.862;30.636;2023-03-14T12:50:44;13.75;;;8.32;;
43325;SDS011;28920;59.862;30.636;2023-03-14T12:53:21;11.27;;;7.60;;
43325;SDS011;28920;59.862;30.636;2023-03-14T12:56:17;13.68;;;7.55;;
43325;SDS011;28920;59.862;30.636;2023-03-14T12:58:54;14.15;;;7.95;;
43325;SDS011;28920;59.862;30.636;2023-03-14T13:01:45;14.52;;;6.95;;
43325;SDS011;28920;59.862;30.636;2023-03-14T13:04:14;16.67;;;8.20;;
43325;SDS011;28920;59.862;30.636;2023-03-14T13:06:47;16.30;;;7.75;;
43325;SDS011;28920;59.862;30.636;2023-03-14T13:12:28;11.18;;;7.28;;
43325;SDS011;28920;59.862;30.636;2023-03-14T13:15:01;15.57;;;8.93;;
43325;SDS011;28920;59.862;30.636;2023-03-14T13:17:42;13.10;;;7.55;;
43325;SDS011;28920;59.862;30.636;2023-03-14T13:20:11;17.35;;;7.65;;
43325;SDS011;28920;59.862;30.636;2023-03-14T13:22:45;14.20;;;7.80;;
43325;SDS011;28920;59.862;30.636;2023-03-14T13:25:14;13.77;;;8.07;;
43325;SDS011;28920;59.862;30.636;2023-03-14T13:27:44;14.45;;;8.80;;
43325;SDS011;28920;59.862;30.636;2023-03-14T13:30:21;14.50;;;7.95;;
43325;SDS011;28920;59.862;30.636;2023-03-14T13:32:51;15.10;;;7.70;;
43325;SDS011;28920;59.862;30.636;2023-03-14T13:35:21;12.18;;;7.00;;
43325;SDS011;28920;59.862;30.636;2023-03-14T13:37:57;16.85;;;7.32;;
43325;SDS011;28920;59.862;30.636;2023-03-14T13:40:29;12.32;;;6.93;;
43325;SDS011;28920;59.862;30.636;2023-03-14T13:43:11;13.95;;;8.05;;
43325;SDS011;28920;59.862;30.636;2023-03-14T13:45:46;12.15;;;8.15;;
43325;SDS011;28920;59.862;30.636;2023-03-14T13:48:17;11.45;;;7.75;;
43325;SDS011;28920;59.862;30.636;2023-03-14T13:50:46;16.33;;;8.35;;
43325;SDS011;28920;59.862;30.636;2023-03-14T13:53:18;18.15;;;8.13;;
43325;SDS011;28920;59.862;30.636;2023-03-14T13:55:45;21.48;;;7.28;;
43325;SDS011;28920;59.862;30.636;2023-03-14T13:58:18;18.98;;;8.23;;
43325;SDS011;28920;59.862;30.636;2023-03-14T14:00:58;14.80;;;8.27;;
43325;SDS011;28920;59.862;30.636;2023-03-14T14:03:29;18.50;;;8.15;;
43325;SDS011;28920;59.862;30.636;2023-03-14T14:05:58;13.88;;;6.72;;
43325;SDS011;28920;59.862;30.636;2023-03-14T14:08:26;11.18;;;8.05;;
43325;SDS011;28920;59.862;30.636;2023-03-14T14:10:55;15.35;;;7.72;;
43325;SDS011;28920;59.862;30.636;2023-03-14T14:13:26;15.30;;;8.63;;
43325;SDS011;28920;59.862;30.636;2023-03-14T14:15:57;16.58;;;9.80;;
43325;SDS011;28920;59.862;30.636;2023-03-14T14:18:27;15.52;;;8.27;;
43325;SDS011;28920;59.862;30.636;2023-03-14T14:20:57;15.90;;;7.90;;
43325;SDS011;28920;59.862;30.636;2023-03-14T14:23:25;11.23;;;6.75;;
43325;SDS011;28920;59.862;30.636;2023-03-14T14:25:55;18.05;;;8.85;;
43325;SDS011;28920;59.862;30.636;2023-03-14T14:28:26;10.43;;;6.25;;
43325;SDS011;28920;59.862;30.636;2023-03-14T14:31:02;15.57;;;7.75;;
43325;SDS011;28920;59.862;30.636;2023-03-14T14:33:39;13.27;;;7.80;;
43325;SDS011;28920;59.862;30.636;2023-03-14T14:36:13;18.20;;;8.43;;
43325;SDS011;28920;59.862;30.636;2023-03-14T14:38:48;19.10;;;8.73;;
43325;SDS011;28920;59.862;30.636;2023-03-14T14:41:16;16.98;;;9.52;;
43325;SDS011;28920;59.862;30.636;2023-03-14T14:43:44;15.63;;;10.43;;
43325;SDS011;28920;59.862;30.636;2023-03-14T14:46:13;18.37;;;10.30;;
43325;SDS011;28920;59.862;30.636;2023-03-14T14:48:45;16.55;;;10.30;;
43325;SDS011;28920;59.862;30.636;2023-03-14T14:51:24;24.52;;;11.30;;
43325;SDS011;28920;59.862;30.636;2023-03-14T14:54:04;22.65;;;10.65;;
43325;SDS011;28920;59.862;30.636;2023-03-14T14:56:37;14.80;;;9.48;;